Hovedside
METAR-TAF:

METAR-TAF

Lufthavner :

Sanderson Field Airport

Shelton, Washington, USA

breddegrad: 47-14-17N, lengdegrad: 123-08-27W, høyde over havet: 82 m

Gjeldene værobservasjon

Denne rapporten ble laget for 21 minutter siden, klokken 06:53 UTC
Vind 7 kt fra Nord
Temperatur 1°C
Luftfuktighet 100%
Trykk 1019 hPa
Sikt: 9.7 km
Overskyet i en høyde av 1700 ft
regn, dis

METAR: KSHN 180653Z AUTO 01007KT 6SM RA BR OVC017 01/01 A3008 RMK AO2 RAE0554B19SNB0554E35 SLP193 P0011 I1001 T00060006

Tid: 23:14 (07:14 UTC)


TAF: fraværende

Værobservasjoner og værvarsel for over 4000 flyplasser (METAR- og TAF-rapporter).

Tilgjengelige stasjoner er representert av de røde og gule prikkene på kartet.

Hold musepekeren over prikken for å se navnet på stasjonen.

Klikk så for å se værobservasjoner og -varsler.

For å forandre kartet kan du klikke på den grønne knappen med svart kryss for å zoome inn, på den grønne knappen med strek for å zoome ut, eller på de grønne pilene for å se tilstøtende kart.


METAR-TAF: